NWS Home NWS Lubbock West Texas Mesonet Day over Day changes as of 0326 AM, Thu Feb 23, 2017

Latest   N   C   S   Daily Sum   3hrΔ   24hrΔ   Soil Data 
Site Map   24hr Precip   72hr Precip   Google Plot


Station Time of Last Temp Today Temp Yesterday Delta-T Dewpoint Today Dewpoint Yesterday Delta-Td Delta-Pressure (mB)
Reese Center  03:20 AM 50.4 46.5 3.9 28.3 28.2 0.2 -9
Abernathy  03:20 AM 42.9 47.5 -4.6 31.3 28.9 2.4 -8.7
Plainview  03:20 AM 43.9 54.1 -10.1 31.6 25.7 5.9 -8.5
Tahoka  03:20 AM 49.3 50 -0.7 29.7 29.4 0.3 -8.6
Slaton  03:20 AM 54.3 46.6 7.7 28.4 31.1 -2.8 -8.7
Levelland  03:20 AM 55.1 41.1 14 26.2 28.3 -2.2 -9
Roaring Springs  03:20 AM 57.1 47.9 9.2 32.5 36.2 -3.6 -8.9
Floydada  03:20 AM 47 42 5 29.2 29 0.2 -8.3
Ralls  03:20 AM 48.7 46.7 2.1 31 31 0 -8.5
Brownfield  03:20 AM 54.4 49.9 4.5 27 29.4 -2.5 -9.1
Muleshoe  03:20 AM 39.3 43.1 -3.8 31.5 27.3 4.1 -9.2
Morton  03:20 AM 55.9 49.2 6.7 27.6 30 -2.4 -9.1
O'Donnell  03:20 AM 47.1 45.4 1.6 32.8 31.9 0.9 -8.8
Seagraves  03:20 AM 49.9 47.2 2.6 27.6 31.9 -4.3 -9.2
Amherst  03:20 AM 52.2 55.1 -3 29.7 28.3 1.4 -8.9
Plains  03:20 AM 51 41.2 9.8 26.8 29.7 -2.8 -9.2
Lamesa  03:20 AM 44.6 50.3 -5.7 35.2 33.9 1.3 -8.8
Hart  03:20 AM 45.8 42.2 3.6 33.4 29.4 3.9 -8.8
Friona  03:20 AM 38.1 42.7 -4.6 32.6 26.3 6.3 -9
Dimmitt  03:20 AM 44.2 47.5 -3.3 33.1 27.1 6.1 -8.4
Tulia  03:20 AM 43.6 49.8 -6.2 35.1 29.7 5.5 -8.2
Silverton  03:20 AM 43.1 42.9 0.3 29.7 29.1 0.6 -8.3
Post  03:20 AM 57.8 50.4 7.4 29.8 33 -3.2 -8.8
Seminole  03:20 AM 52.2 49 3.3 26.5 31.8 -5.2 -9.2
Gail  03:20 AM 56.3 48.8 7.5 31.8 35.3 -3.5 -8.5
White River Lake  03:20 AM 59.4 52.3 7.1 27.4 32.7 -5.3 -8.6
Graham  03:20 AM 56.6 48 8.6 29.3 32.9 -3.5 -8.4
Sundown  03:20 AM 49.6 45.6 4 27.8 29.8 -2 -8.9
Anton  03:20 AM 46.7 44.9 1.8 29.6 29.1 0.5 -9
Fluvanna  03:20 AM 56.7 50.9 5.8 30.5 34 -3.5 -8.3
Spur  03:20 AM 50.1 45.3 4.8 33.9 34.8 -0.9 -8.9
Northwest Lubbock  03:20 AM 53.1 52 1.1 27.7 27.1 0.7 -8.9
Guthrie  03:20 AM 57.8 50.7 7.1 33.2 29.4 3.8 -9.4
Clarendon  03:20 AM 47.5 55.1 -7.6 33.8 27.7 6.1 -7.8
Paducah  03:20 AM 65.3 57.1 8.2 30.7 29.9 0.8 -9.2
Snyder  03:20 AM 52.8 49.2 3.5 36.3 37.6 -1.3 -8.3
Memphis  03:20 AM 54.9 41.3 13.6 35.3 33 2.3 -8.7
Jayton  03:20 AM 56.7 46 10.6 33.4 31.3 2.1 -9
Pampa  03:20 AM 55.3 46.3 9 30.5 30.5 0.1 -7.5
Aspermont  03:20 AM 64.5 46.4 18.1 33.1 33.8 -0.7 -9.5
Hereford  03:20 AM 41.5 46.3 -4.8 32.4 27.3 5.1 -8.7
Goodlett  03:20 AM 54 45.8 8.2 38.4 36.3 2.1 -9.5
McLean  03:20 AM 48.6 51.8 -3.3 31 25.2 5.7 -7.6
Denver City  03:20 AM 49.1 46 3.2 25.9 30.2 -4.3 -9.3
Lake Alan Henry  03:20 AM 59.9 49.3 10.6 30.3 34 -3.6 -9
Wolfforth  03:20 AM 48.8 49.8 -1 27.9 28.2 -0.2 -8.9
Andrews  03:20 AM 57.2 55.1 2.1 27.5 31.3 -3.8 -9
Turkey  03:20 AM 54.8 50.1 4.7 32 35 -3 -8.9
Childress  03:20 AM 61.1 52.5 8.6 32 30.9 1.1 -8.9
Tatum  03:20 AM 44.3 42.2 2.1 28.2 29.3 -1.1 -9.5
Northfield  03:20 AM 53.7 45.2 8.6 36.4 35.2 1.1 -9
Dora  03:20 AM 52.7 52.8 -0.1 27.8 31 -3.3 -9.5
Northwest San Angelo  03:20 AM 49.1 42.8 6.3 36.3 37.4 -1.1 -8.4
Saint Lawrence  03:20 AM 50.9 47.8 3.1 34.3 34.9 -0.6 -9
Haskell  03:20 AM 52 51.6 0.4 39.9 33.8 6.2 -9
Wall  03:20 AM 54.7 50.1 4.6 38.4 37.4 1 -8.5
Seymour  03:20 AM 53 47.8 5.2 44.6 40.6 4 -9.7
Knox City  03:20 AM 50.3 44.5 5.8 39.3 35.5 3.8 -9.4
Guadalupe Mtns Park  03:20 AM 62.1 63.5 -1.4 23.5 10.8 12.7 -7.2
Caprock Canyons   03:20 AM 54.8 51.6 3.1 30.1 29.6 0.5 -8.8
Odell  03:20 AM 56.4 47.2 9.2 41.8 40.9 0.9 -9.8
Coyanosa  03:20 AM 53.2 51.5 1.7 18.6 28.5 -9.9 -9.4
Big Lake  03:20 AM 58.6 53.7 4.9 34.5 35.9 -1.3 -8.7
Junction  03:20 AM 41.4 41.1 0.3 40.6 39.8 0.8 -8.6
Hobbs  03:20 AM 47.8 48.9 -1.1 24.9 30.4 -5.4 -9.2
Canadian  03:20 AM 52.6 40.7 11.9 30.2 26.4 3.9 -7.8
Palo Duro Canyon State Park Rim  03:20 AM 49.1 52.1 -3 32.9 25.5 7.4 -7.8
Bootleg  03:20 AM 44.9 47.4 -2.5 32.5 27.2 5.2 -9.2
Sterling City  03:20 AM 65.3 36.4 28.9 33.5 33.8 -0.3 -9
Mertzon  03:20 AM 47.9 44.7 3.3 36.7 36.6 0.1 -8.4
Persimmon Gap  03:20 AM 54.6 52.7 1.8 29.1 32.1 -2.9 -9.2
Weinert  03:20 AM 55.7 45.8 9.9 41.2 37.7 3.5 -9.4
Claude 12 southwest  03:20 AM 53.5 51.3 2.2 31.8 26.9 5 -7.7
Amarillo 7 south southeast  03:20 AM 41 53.1 -12.1 32.6 22.6 10 -7.9
Umbarger  03:20 AM 41.7 43.1 -1.3 33.9 28.2 5.7 -8.5
Lomax  03:20 AM 48.1 48.6 -0.5 33.2 34.7 -1.5 -8.6
Amarillo 9 North Northeast  03:20 AM 44.6 39 5.6 33.1 26.9 6.2 -8
Aiken 3 West Southwest  03:20 AM 40.8 47.6 -6.8 29.9 28.7 1.2 -8.3
Sweetwater  03:20 AM 57.4 54.2 3.3 35.4 33.7 1.7 -8
Dozier  03:20 AM 58.6 40.6 18 31.1 30 1.1 -8.7
Amarillo 15 North Northwest  03:20 AM 48.4 40 8.3 32.9 27.5 5.4 -8.3
Menard  03:20 AM 42.7 40.7 2.1 40.2 38.6 1.6 -8.5
Tarzan  03:20 AM 52.4 52.7 -0.3 33.1 35.8 -2.7 -8.7
Goodnight  03:20 AM 46.9 49.8 -2.8 34.5 30.4 4.2 -7.5
Boys Ranch   03:20 AM 40.1 42.3 -2.2 29.5 24.5 5 -8.6
Fort McKavett  03:20 AM 47.8 41.9 6 39.7 38.2 1.4 -8.5
Fort Chadbourne  03:20 AM 51.8 43.3 8.5 39 38 1 -8.8
Palo Duro Canyon State Park Floor  03:20 AM 47.9 52.2 -4.3 35 28 7 -7.9
Fort Lancaster  03:20 AM 47.6 44.8 2.8 38.4 38 0.4 -9.1
Dell City 1N  03:20 AM 44 38.2 5.9 25.7 27.3 -1.6 -10.2
Clyde  03:20 AM 65.2 56.8 8.5 36.5 34.6 1.9 -8.7
Snyder SSW  03:20 AM 55 50.6 4.4 34.6 37.9 -3.3 -8.3
Panhandle  03:20 AM 40.9 41.4 -0.5 30.6 29.6 1 -7.5
Vigo Park  03:20 AM 41.4 40.1 1.3 32.6 29.5 3.1 -8.2
Welch  03:20 AM 46.5 48.4 -1.9 31 31.9 -0.9 -8.9
Throckmorton  03:20 AM 58.8 50.6 8.2 41.7 41 0.7 -9.5
Sierra Blanca  03:20 AM 63.6 58.5 5.1 22.7 31.2 -8.4 -9.3
Fort Lewis CO  03:20 AM 33.9 38.6 -4.7 21.8 33 -11.2 -13.8
New Home  03:20 AM 46.7 49.6 -2.9 29 29.9 -0.9 -8.8
McCamey  03:20 AM 56.4 47.4 8.9 35.7 35.2 0.4 -9.2
Stamford  03:20 AM 53.2 47.2 6 40.5 37.2 3.3 -9
Crowell  03:20 AM 59.1 47.5 11.6 38.2 38.1 0.1 -9.7
Olton  03:20 AM 37.6 48.3 -10.8 30.1 26.1 4 -8.6

West Texas Mesonet Home   Site Map/Menu  NWS Lubbock Soil Data  Daily Summary Page  24hr Precip  72hr Precip  Google Plot